Thunder radar more information blitzortung!


Radar de pluja more information rain snow radar


Visita la nostra xarxa de llocs de meteo:

Template documentation
and downloads

And another site



No particular awareness of the weather is required.    There are no Weather-warnings

Pagina Historial Weather Underground text

Diari Resum Novembre 14, 2017 Unitats:  Tant    Imperial   Mètric
« Previous Dia
SegĂźent Dia »
Diari Setmana Mensual Anual Personalitzada
  Maxima: Minima: Media:
Temperatura: 60.3 °F /  15.7 °C 36 °F /  2.2 °C 48 °F /  8.9 °C
Punt de rosada: 30.9 °F /  -0.6 °C 12.4 °F /  -10.9 °C 22.5 °F /  -5.3 °C
Humitat: 50 % 25 % 37 %
Wind Speed: 6.9 mph /  11.1 km/h - 2.1 mph /  3.4 km/h
RĂ fegues de vent: 10 mph /  16.1 km/h - -
Vent:- - SSW
Pression baro: 30.2 in /  1020.9 hPa 30 in /  1014.8 hPa -
Precipitacions: 0 in /  0.0 mm    
Historical Graphs
 
 
Dades de taula per Novembre 14, 2017
Temps Temperatura Punt de rosada Pression baro Vent Wind Speed RĂ fegues de vent Humitat Rainfall Rate (Hourly)
00:00 46.6 °F /  8.1 °C 12.6 °F /  -10.8 °C 30 in /  1015.8 hPa WSW 3 mph /  4.8 km/h 6 mph /  9.7 km/h 25 % 0 in /  0.0 mm
00:05 46.4 °F /  8.0 °C 12.4 °F /  -10.9 °C 30 in /  1014.8 hPa WSW 5 mph /  8.0 km/h 10 mph /  16.1 km/h 25 % 0 in /  0.0 mm
00:10 46.4 °F /  8.0 °C 12.6 °F /  -10.8 °C 30 in /  1014.8 hPa West 3 mph /  4.8 km/h 8 mph /  12.9 km/h 25 % 0 in /  0.0 mm
00:20 40.5 °F /  4.7 °C 12.9 °F /  -10.6 °C 30 in /  1015.8 hPa WSW 1 mph /  1.6 km/h 3 mph /  4.8 km/h 32 % 0 in /  0.0 mm
00:30 40.1 °F /  4.5 °C 13.3 °F /  -10.4 °C 30 in /  1015.8 hPa West 1 mph /  1.6 km/h 3 mph /  4.8 km/h 33 % 0 in /  0.0 mm
00:40 39.7 °F /  4.3 °C 12.9 °F /  -10.6 °C 30 in /  1015.8 hPa West 1 mph /  1.6 km/h 2 mph /  3.2 km/h 33 % 0 in /  0.0 mm
00:50 39.4 °F /  4.1 °C 12.6 °F /  -10.8 °C 30 in /  1015.8 hPa NW 1 mph /  1.6 km/h 1 mph /  1.6 km/h 33 % 0 in /  0.0 mm
01:00 39 °F /  3.9 °C 12.4 °F /  -10.9 °C 30 in /  1016.8 hPa Calm   1 mph /  1.6 km/h 33 % 0 in /  0.0 mm
01:10 38.8 °F /  3.8 °C 12.7 °F /  -10.7 °C 30 in /  1016.8 hPa NNW 1 mph /  1.6 km/h 1 mph /  1.6 km/h 34 % 0 in /  0.0 mm
01:20 38.7 °F /  3.7 °C 12.7 °F /  -10.7 °C 30 in /  1016.8 hPa Calm   1 mph /  1.6 km/h 34 % 0 in /  0.0 mm
01:30 38.3 °F /  3.5 °C 12.4 °F /  -10.9 °C 30.1 in /  1017.8 hPa Calm   1 mph /  1.6 km/h 34 % 0 in /  0.0 mm
01:40 38.1 °F /  3.4 °C 12.7 °F /  -10.7 °C 30.1 in /  1017.8 hPa Calm   1 mph /  1.6 km/h 35 % 0 in /  0.0 mm
01:50 37.8 °F /  3.2 °C 12.6 °F /  -10.8 °C 30.1 in /  1017.8 hPa West 1 mph /  1.6 km/h 2 mph /  3.2 km/h 35 % 0 in /  0.0 mm
02:00 38.3 °F /  3.5 °C 13.6 °F /  -10.2 °C 30.1 in /  1017.8 hPa West 1 mph /  1.6 km/h 1 mph /  1.6 km/h 36 % 0 in /  0.0 mm
02:10 39 °F /  3.9 °C 14.4 °F /  -9.8 °C 30.1 in /  1017.8 hPa North 1 mph /  1.6 km/h 2 mph /  3.2 km/h 36 % 0 in /  0.0 mm
02:20 39.6 °F /  4.2 °C 15.4 °F /  -9.2 °C 30.1 in /  1017.8 hPa WNW 1 mph /  1.6 km/h 1 mph /  1.6 km/h 37 % 0 in /  0.0 mm
02:30 40.6 °F /  4.8 °C 16.3 °F /  -8.7 °C 30.1 in /  1017.8 hPa West 1 mph /  1.6 km/h 2 mph /  3.2 km/h 37 % 0 in /  0.0 mm
02:40 41.2 °F /  5.1 °C 16.9 °F /  -8.4 °C 30.1 in /  1017.8 hPa WNW 1 mph /  1.6 km/h 2 mph /  3.2 km/h 37 % 0 in /  0.0 mm
03:00 43 °F /  6.1 °C 19 °F /  -7.2 °C 30.1 in /  1017.8 hPa NW 1 mph /  1.6 km/h 3 mph /  4.8 km/h 38 % 0 in /  0.0 mm
03:10 43.7 °F /  6.5 °C 19.8 °F /  -6.8 °C 30.1 in /  1018.8 hPa NW 2 mph /  3.2 km/h 3 mph /  4.8 km/h 38 % 0 in /  0.0 mm
03:20 44.1 °F /  6.7 °C 19.9 °F /  -6.7 °C 30.1 in /  1018.8 hPa NE 2 mph /  3.2 km/h 2 mph /  3.2 km/h 38 % 0 in /  0.0 mm
03:30 44.4 °F /  6.9 °C 20.5 °F /  -6.4 °C 30.1 in /  1018.8 hPa NE 2 mph /  3.2 km/h 5 mph /  8.0 km/h 38 % 0 in /  0.0 mm
09:37 45.1 °F /  7.3 °C 21 °F /  -6.1 °C 30.1 in /  1018.8 hPa ESE 2.3 mph /  3.7 km/h 2.3 mph /  3.7 km/h 38 % 0 in /  0.0 mm
09:38 45.3 °F /  7.4 °C 21.2 °F /  -6.0 °C 30.1 in /  1018.8 hPa East 1.2 mph /  1.9 km/h   38 % 0 in /  0.0 mm
09:43 45.3 °F /  7.4 °C 21.2 °F /  -6.0 °C 30.1 in /  1018.8 hPa ENE 3.5 mph /  5.6 km/h 3.5 mph /  5.6 km/h 38 % 0 in /  0.0 mm
09:48 45.9 °F /  7.7 °C 21.7 °F /  -5.7 °C 30.1 in /  1018.8 hPa West 2.3 mph /  3.7 km/h 2.3 mph /  3.7 km/h 38 % 0 in /  0.0 mm
09:53 46 °F /  7.8 °C 21.7 °F /  -5.7 °C 30.1 in /  1019.9 hPa NNE 4.6 mph /  7.4 km/h 4.6 mph /  7.4 km/h 38 % 0 in /  0.0 mm
09:58 45.3 °F /  7.4 °C 20.5 °F /  -6.4 °C 30.1 in /  1019.9 hPa ENE 4.6 mph /  7.4 km/h 4.6 mph /  7.4 km/h 37 % 0 in /  0.0 mm
10:03 46.2 °F /  7.9 °C 21.9 °F /  -5.6 °C 30.1 in /  1019.9 hPa NNE 3.8 mph /  6.1 km/h 3.8 mph /  6.1 km/h 38 % 0 in /  0.0 mm
10:08 46.8 °F /  8.2 °C 22.5 °F /  -5.3 °C 30.1 in /  1018.8 hPa ENE 2.3 mph /  3.7 km/h 2.3 mph /  3.7 km/h 38 % 0 in /  0.0 mm
10:13 46.8 °F /  8.2 °C 21.7 °F /  -5.7 °C 30.1 in /  1018.8 hPa NNE 3.5 mph /  5.6 km/h 3.5 mph /  5.6 km/h 37 % 0 in /  0.0 mm
10:18 46.9 °F /  8.3 °C 21.9 °F /  -5.6 °C 30.1 in /  1018.8 hPa WNW 3.5 mph /  5.6 km/h 3.5 mph /  5.6 km/h 37 % 0 in /  0.0 mm
10:23 47.5 °F /  8.6 °C 23.2 °F /  -4.9 °C 30.1 in /  1018.8 hPa North 4.6 mph /  7.4 km/h 4.6 mph /  7.4 km/h 38 % 0 in /  0.0 mm
10:28 47.7 °F /  8.7 °C 22.6 °F /  -5.2 °C 30.1 in /  1018.8 hPa NW 2.3 mph /  3.7 km/h 2.3 mph /  3.7 km/h 37 % 0 in /  0.0 mm
10:33 47.7 °F /  8.7 °C 22.6 °F /  -5.2 °C 30.1 in /  1018.8 hPa NNE 5.8 mph /  9.3 km/h 5.8 mph /  9.3 km/h 37 % 0 in /  0.0 mm
10:38 47.3 °F /  8.5 °C 22.3 °F /  -5.4 °C 30.1 in /  1018.8 hPa NNE 3.5 mph /  5.6 km/h 3.5 mph /  5.6 km/h 37 % 0 in /  0.0 mm
10:43 48.4 °F /  9.1 °C 23.4 °F /  -4.8 °C 30.1 in /  1018.8 hPa SSE 2.3 mph /  3.7 km/h   37 % 0 in /  0.0 mm
10:48 48.6 °F /  9.2 °C 23.4 °F /  -4.8 °C 30.1 in /  1018.8 hPa NE 6.2 mph /  10.0 km/h 6.2 mph /  10.0 km/h 37 % 0 in /  0.0 mm
10:53 48.2 °F /  9.0 °C 23.2 °F /  -4.9 °C 30.1 in /  1019.9 hPa NNE 5.8 mph /  9.3 km/h 5.8 mph /  9.3 km/h 37 % 0 in /  0.0 mm
10:58 48.7 °F /  9.3 °C 23.5 °F /  -4.7 °C 30.1 in /  1019.9 hPa NNE 4 mph /  6.4 km/h 4 mph /  6.4 km/h 37 % 0 in /  0.0 mm
11:03 48.7 °F /  9.3 °C 23.5 °F /  -4.7 °C 30.1 in /  1019.9 hPa North 4.6 mph /  7.4 km/h 4.6 mph /  7.4 km/h 37 % 0 in /  0.0 mm
11:08 49.1 °F /  9.5 °C 23.9 °F /  -4.5 °C 30.1 in /  1019.9 hPa NE 4.6 mph /  7.4 km/h 4.6 mph /  7.4 km/h 37 % 0 in /  0.0 mm
11:13 50 °F /  10.0 °C 24.6 °F /  -4.1 °C 30.1 in /  1019.9 hPa ESE 2.3 mph /  3.7 km/h 2.3 mph /  3.7 km/h 37 % 0 in /  0.0 mm
11:18 50.5 °F /  10.3 °C 25.2 °F /  -3.8 °C 30.1 in /  1019.9 hPa ENE 3.5 mph /  5.6 km/h 3.5 mph /  5.6 km/h 37 % 0 in /  0.0 mm
11:23 49.8 °F /  9.9 °C 23.9 °F /  -4.5 °C 30.1 in /  1019.9 hPa NE 5.8 mph /  9.3 km/h 5.8 mph /  9.3 km/h 36 % 0 in /  0.0 mm
11:28 49.8 °F /  9.9 °C 23.9 °F /  -4.5 °C 30.1 in /  1019.9 hPa NNE 3.5 mph /  5.6 km/h 3.5 mph /  5.6 km/h 36 % 0 in /  0.0 mm
11:33 50.7 °F /  10.4 °C 25.3 °F /  -3.7 °C 30.1 in /  1019.9 hPa WNW 2.3 mph /  3.7 km/h 2.3 mph /  3.7 km/h 37 % 0 in /  0.0 mm
11:38 51.3 °F /  10.7 °C 25.2 °F /  -3.8 °C 30.1 in /  1019.9 hPa East 2.3 mph /  3.7 km/h 2.3 mph /  3.7 km/h 36 % 0 in /  0.0 mm
11:43 51.6 °F /  10.9 °C 25.5 °F /  -3.6 °C 30.1 in /  1019.9 hPa NE 2.4 mph /  3.9 km/h 2.4 mph /  3.9 km/h 36 % 0 in /  0.0 mm
11:48 51.8 °F /  11.0 °C 25.7 °F /  -3.5 °C 30.1 in /  1019.9 hPa NNW 3.5 mph /  5.6 km/h 3.5 mph /  5.6 km/h 36 % 0 in /  0.0 mm
11:53 51.8 °F /  11.0 °C 25.7 °F /  -3.5 °C 30.1 in /  1018.8 hPa SW 2.3 mph /  3.7 km/h 2.3 mph /  3.7 km/h 36 % 0 in /  0.0 mm
11:58 52.3 °F /  11.3 °C 26.1 °F /  -3.3 °C 30.1 in /  1018.8 hPa ENE 2.3 mph /  3.7 km/h 2.3 mph /  3.7 km/h 36 % 0 in /  0.0 mm
12:03 52.9 °F /  11.6 °C 26.6 °F /  -3.0 °C 30.1 in /  1018.8 hPa North 3.5 mph /  5.6 km/h 3.5 mph /  5.6 km/h 36 % 0 in /  0.0 mm
12:08 52.5 °F /  11.4 °C 26.2 °F /  -3.2 °C 30.1 in /  1018.8 hPa East 4.9 mph /  7.9 km/h 4.9 mph /  7.9 km/h 36 % 0 in /  0.0 mm
12:13 52.5 °F /  11.4 °C 26.2 °F /  -3.2 °C 30.1 in /  1018.8 hPa NE 4.6 mph /  7.4 km/h 4.6 mph /  7.4 km/h 36 % 0 in /  0.0 mm
12:18 52.9 °F /  11.6 °C 26.6 °F /  -3.0 °C 30.1 in /  1018.8 hPa NNE 2.3 mph /  3.7 km/h 2.3 mph /  3.7 km/h 36 % 0 in /  0.0 mm
12:23 53.1 °F /  11.7 °C 26.1 °F /  -3.3 °C 30.1 in /  1018.8 hPa East 2.3 mph /  3.7 km/h 2.3 mph /  3.7 km/h 35 % 0 in /  0.0 mm
12:28 53.6 °F /  12.0 °C 26.6 °F /  -3.0 °C 30.1 in /  1018.8 hPa SSW 2.3 mph /  3.7 km/h 2.3 mph /  3.7 km/h 35 % 0 in /  0.0 mm
12:33 53.8 °F /  12.1 °C 27.3 °F /  -2.6 °C 30.1 in /  1018.8 hPa NE 3.5 mph /  5.6 km/h 3.5 mph /  5.6 km/h 36 % 0 in /  0.0 mm
12:38 53.8 °F /  12.1 °C 26.8 °F /  -2.9 °C 30.1 in /  1017.8 hPa NE 3.5 mph /  5.6 km/h 3.5 mph /  5.6 km/h 35 % 0 in /  0.0 mm
12:43 54 °F /  12.2 °C 27 °F /  -2.8 °C 30.1 in /  1017.8 hPa NE 3.5 mph /  5.6 km/h 3.5 mph /  5.6 km/h 35 % 0 in /  0.0 mm
12:48 54.7 °F /  12.6 °C 27.5 °F /  -2.5 °C 30.1 in /  1017.8 hPa ENE 2.9 mph /  4.7 km/h 2.9 mph /  4.7 km/h 35 % 0 in /  0.0 mm
12:53 54 °F /  12.2 °C 27 °F /  -2.8 °C 30.1 in /  1017.8 hPa ENE 4.3 mph /  6.9 km/h 4.3 mph /  6.9 km/h 35 % 0 in /  0.0 mm
12:58 54.1 °F /  12.3 °C 27.1 °F /  -2.7 °C 30.1 in /  1017.8 hPa East 3.5 mph /  5.6 km/h 3.5 mph /  5.6 km/h 35 % 0 in /  0.0 mm
13:03 54.7 °F /  12.6 °C 27.5 °F /  -2.5 °C 30.1 in /  1017.8 hPa ESE 2.3 mph /  3.7 km/h 2.3 mph /  3.7 km/h 35 % 0 in /  0.0 mm
13:08 55 °F /  12.8 °C 27.9 °F /  -2.3 °C 30.1 in /  1017.8 hPa ENE 2.4 mph /  3.9 km/h 2.4 mph /  3.9 km/h 35 % 0 in /  0.0 mm
13:13 55.9 °F /  13.3 °C 28.8 °F /  -1.8 °C 30.1 in /  1017.8 hPa SE 2.4 mph /  3.9 km/h 2.4 mph /  3.9 km/h 35 % 0 in /  0.0 mm
13:18 56.1 °F /  13.4 °C 29.5 °F /  -1.4 °C 30.1 in /  1017.8 hPa West 3.5 mph /  5.6 km/h 3.5 mph /  5.6 km/h 36 % 0 in /  0.0 mm
13:23 56.7 °F /  13.7 °C 29.3 °F /  -1.5 °C 30.1 in /  1017.8 hPa SW 4.6 mph /  7.4 km/h 4.6 mph /  7.4 km/h 35 % 0 in /  0.0 mm
13:28 56.5 °F /  13.6 °C 28.4 °F /  -2.0 °C 30.1 in /  1017.8 hPa East 3.5 mph /  5.6 km/h 3.5 mph /  5.6 km/h 34 % 0 in /  0.0 mm
13:33 56.7 °F /  13.7 °C 29.3 °F /  -1.5 °C 30.1 in /  1017.8 hPa NW 2.9 mph /  4.7 km/h 2.9 mph /  4.7 km/h 35 % 0 in /  0.0 mm
13:38 56.5 °F /  13.6 °C 28.4 °F /  -2.0 °C 30.1 in /  1018.8 hPa NW 2.3 mph /  3.7 km/h 2.3 mph /  3.7 km/h 34 % 0 in /  0.0 mm
13:43 56.3 °F /  13.5 °C 28.2 °F /  -2.1 °C 30.1 in /  1018.8 hPa NW 2.6 mph /  4.2 km/h 2.6 mph /  4.2 km/h 34 % 0 in /  0.0 mm
13:48 56.5 °F /  13.6 °C 28.4 °F /  -2.0 °C 30.1 in /  1018.8 hPa SSE 2.3 mph /  3.7 km/h 2.3 mph /  3.7 km/h 34 % 0 in /  0.0 mm
13:53 56.5 °F /  13.6 °C 28.4 °F /  -2.0 °C 30.1 in /  1017.8 hPa WSW 3.5 mph /  5.6 km/h 3.5 mph /  5.6 km/h 34 % 0 in /  0.0 mm
13:58 56.5 °F /  13.6 °C 28.4 °F /  -2.0 °C 30.1 in /  1017.8 hPa SW 2.3 mph /  3.7 km/h 2.3 mph /  3.7 km/h 34 % 0 in /  0.0 mm
14:03 56.3 °F /  13.5 °C 28.2 °F /  -2.1 °C 30.1 in /  1017.8 hPa NNE 2.3 mph /  3.7 km/h 2.3 mph /  3.7 km/h 34 % 0 in /  0.0 mm
14:08 56.5 °F /  13.6 °C 28.4 °F /  -2.0 °C 30.1 in /  1017.8 hPa SE 2.4 mph /  3.9 km/h 2.4 mph /  3.9 km/h 34 % 0 in /  0.0 mm
14:13 56.3 °F /  13.5 °C 27.5 °F /  -2.5 °C 30.1 in /  1017.8 hPa ESE 4.6 mph /  7.4 km/h 4.6 mph /  7.4 km/h 33 % 0 in /  0.0 mm
14:18 56.3 °F /  13.5 °C 27.5 °F /  -2.5 °C 30.1 in /  1017.8 hPa ESE 5.8 mph /  9.3 km/h 5.8 mph /  9.3 km/h 33 % 0 in /  0.0 mm
14:23 56.7 °F /  13.7 °C 27.9 °F /  -2.3 °C 30.1 in /  1017.8 hPa SSW 3.5 mph /  5.6 km/h 3.5 mph /  5.6 km/h 33 % 0 in /  0.0 mm
14:28 56.8 °F /  13.8 °C 28 °F /  -2.2 °C 30.1 in /  1017.8 hPa West 2.4 mph /  3.9 km/h 2.4 mph /  3.9 km/h 33 % 0 in /  0.0 mm
14:33 57.6 °F /  14.2 °C 28.6 °F /  -1.9 °C 30.1 in /  1017.8 hPa SW 4.6 mph /  7.4 km/h 4.6 mph /  7.4 km/h 33 % 0 in /  0.0 mm
14:38 57.2 °F /  14.0 °C 28.2 °F /  -2.1 °C 30.1 in /  1017.8 hPa NE 5.8 mph /  9.3 km/h 5.9 mph /  9.5 km/h 33 % 0 in /  0.0 mm
14:43 57.2 °F /  14.0 °C 28.2 °F /  -2.1 °C 30.1 in /  1017.8 hPa ESE 4.6 mph /  7.4 km/h 4.6 mph /  7.4 km/h 33 % 0 in /  0.0 mm
14:45 57.7 °F /  14.3 °C 29.5 °F /  -1.4 °C 30.1 in /  1017.8 hPa NW 3.5 mph /  5.6 km/h 3.5 mph /  5.6 km/h 34 % 0 in /  0.0 mm
14:50 58.3 °F /  14.6 °C 30 °F /  -1.1 °C 30.1 in /  1017.8 hPa WNW 6.9 mph /  11.1 km/h 6.9 mph /  11.1 km/h 34 % 0 in /  0.0 mm
14:55 58.1 °F /  14.5 °C 29.1 °F /  -1.6 °C 30.1 in /  1017.8 hPa WSW 3.5 mph /  5.6 km/h 3.5 mph /  5.6 km/h 33 % 0 in /  0.0 mm
15:00 58.3 °F /  14.6 °C 29.3 °F /  -1.5 °C 30.1 in /  1017.8 hPa SW 2.3 mph /  3.7 km/h 2.3 mph /  3.7 km/h 33 % 0 in /  0.0 mm
15:05 58.6 °F /  14.8 °C 29.7 °F /  -1.3 °C 30.1 in /  1017.8 hPa WNW 3.5 mph /  5.6 km/h 3.5 mph /  5.6 km/h 33 % 0 in /  0.0 mm
15:10 58.8 °F /  14.9 °C 29.7 °F /  -1.3 °C 30.1 in /  1017.8 hPa SW 4.6 mph /  7.4 km/h 4.6 mph /  7.4 km/h 33 % 0 in /  0.0 mm
15:15 59 °F /  15.0 °C 29.8 °F /  -1.2 °C 30.1 in /  1017.8 hPa SW 3.5 mph /  5.6 km/h 3.5 mph /  5.6 km/h 33 % 0 in /  0.0 mm
15:20 59.7 °F /  15.4 °C 30.6 °F /  -0.8 °C 30.1 in /  1017.8 hPa SSE 3.5 mph /  5.6 km/h 3.5 mph /  5.6 km/h 33 % 0 in /  0.0 mm
15:25 59.5 °F /  15.3 °C 30.4 °F /  -0.9 °C 30.1 in /  1017.8 hPa SW 2.3 mph /  3.7 km/h 2.3 mph /  3.7 km/h 33 % 0 in /  0.0 mm
15:30 59.9 °F /  15.5 °C 30.7 °F /  -0.7 °C 30.1 in /  1017.8 hPa WSW 3.5 mph /  5.6 km/h 3.5 mph /  5.6 km/h 33 % 0 in /  0.0 mm
15:35 60.1 °F /  15.6 °C 30.9 °F /  -0.6 °C 30.1 in /  1017.8 hPa West 3.5 mph /  5.6 km/h 3.5 mph /  5.6 km/h 33 % 0 in /  0.0 mm
15:40 60.3 °F /  15.7 °C 30.9 °F /  -0.6 °C 30.1 in /  1017.8 hPa SSE 3.5 mph /  5.6 km/h 3.5 mph /  5.6 km/h 33 % 0 in /  0.0 mm
15:45 60.1 °F /  15.6 °C 30.9 °F /  -0.6 °C 30.1 in /  1017.8 hPa WSW 3.5 mph /  5.6 km/h 3.5 mph /  5.6 km/h 33 % 0 in /  0.0 mm
15:50 59.7 °F /  15.4 °C 29.8 °F /  -1.2 °C 30.1 in /  1017.8 hPa SW 3.5 mph /  5.6 km/h 3.5 mph /  5.6 km/h 32 % 0 in /  0.0 mm
15:55 59.7 °F /  15.4 °C 29.8 °F /  -1.2 °C 30.1 in /  1017.8 hPa WSW 2.3 mph /  3.7 km/h 2.3 mph /  3.7 km/h 32 % 0 in /  0.0 mm
16:00 59.4 °F /  15.2 °C 29.5 °F /  -1.4 °C 30.1 in /  1017.8 hPa NW 4.6 mph /  7.4 km/h 4.6 mph /  7.4 km/h 32 % 0 in /  0.0 mm
16:05 59.4 °F /  15.2 °C 29.5 °F /  -1.4 °C 30.1 in /  1017.8 hPa SW 4.6 mph /  7.4 km/h 4.6 mph /  7.4 km/h 32 % 0 in /  0.0 mm
16:10 59.5 °F /  15.3 °C 29.7 °F /  -1.3 °C 30.1 in /  1017.8 hPa NW 2.3 mph /  3.7 km/h 2.3 mph /  3.7 km/h 32 % 0 in /  0.0 mm
16:15 59.7 °F /  15.4 °C 29.8 °F /  -1.2 °C 30.1 in /  1017.8 hPa NW 2.3 mph /  3.7 km/h 2.3 mph /  3.7 km/h 32 % 0 in /  0.0 mm
16:20 59.5 °F /  15.3 °C 29.7 °F /  -1.3 °C 30.1 in /  1017.8 hPa WSW 2.3 mph /  3.7 km/h 2.3 mph /  3.7 km/h 32 % 0 in /  0.0 mm
16:25 59.4 °F /  15.2 °C 29.5 °F /  -1.4 °C 30.1 in /  1017.8 hPa NNE 3.5 mph /  5.6 km/h 3.5 mph /  5.6 km/h 32 % 0 in /  0.0 mm
16:30 58.8 °F /  14.9 °C 28.9 °F /  -1.7 °C 30.1 in /  1017.8 hPa SSW 2.3 mph /  3.7 km/h 2.3 mph /  3.7 km/h 32 % 0 in /  0.0 mm
16:35 58.6 °F /  14.8 °C 28.8 °F /  -1.8 °C 30.1 in /  1017.8 hPa West 2.3 mph /  3.7 km/h 2.3 mph /  3.7 km/h 32 % 0 in /  0.0 mm
16:40 58.3 °F /  14.6 °C 28.6 °F /  -1.9 °C 30.1 in /  1017.8 hPa WSW 3.1 mph /  5.0 km/h 3.1 mph /  5.0 km/h 32 % 0 in /  0.0 mm
16:45 57.9 °F /  14.4 °C 28.2 °F /  -2.1 °C 30.1 in /  1017.8 hPa WSW 2.3 mph /  3.7 km/h 2.3 mph /  3.7 km/h 32 % 0 in /  0.0 mm
16:50 57.6 °F /  14.2 °C 27.9 °F /  -2.3 °C 30.1 in /  1017.8 hPa WNW 2.3 mph /  3.7 km/h 2.3 mph /  3.7 km/h 32 % 0 in /  0.0 mm
16:55 57 °F /  13.9 °C 27.3 °F /  -2.6 °C 30.1 in /  1017.8 hPa SW 2.3 mph /  3.7 km/h   32 % 0 in /  0.0 mm
17:00 56.8 °F /  13.8 °C 27.3 °F /  -2.6 °C 30.1 in /  1017.8 hPa NNW 1.4 mph /  2.3 km/h 1.4 mph /  2.3 km/h 32 % 0 in /  0.0 mm
17:01 56.7 °F /  13.7 °C 27.1 °F /  -2.7 °C 30.1 in /  1017.8 hPa NNW 2.3 mph /  3.7 km/h 2.3 mph /  3.7 km/h 32 % 0 in /  0.0 mm
17:06 56.5 °F /  13.6 °C 27 °F /  -2.8 °C 30.1 in /  1018.8 hPa West 4.6 mph /  7.4 km/h 4.6 mph /  7.4 km/h 32 % 0 in /  0.0 mm
17:11 55.8 °F /  13.2 °C 26.2 °F /  -3.2 °C 30.1 in /  1018.8 hPa West 3.5 mph /  5.6 km/h 3.5 mph /  5.6 km/h 32 % 0 in /  0.0 mm
17:16 55.2 °F /  12.9 °C 25.9 °F /  -3.4 °C 30.1 in /  1018.8 hPa WNW 2.3 mph /  3.7 km/h 2.3 mph /  3.7 km/h 32 % 0 in /  0.0 mm
17:21 54.7 °F /  12.6 °C 25.3 °F /  -3.7 °C 30.1 in /  1018.8 hPa West 3.5 mph /  5.6 km/h 3.5 mph /  5.6 km/h 32 % 0 in /  0.0 mm
17:26 54.1 °F /  12.3 °C 25 °F /  -3.9 °C 30.1 in /  1018.8 hPa West 1.2 mph /  1.9 km/h 1.2 mph /  1.9 km/h 32 % 0 in /  0.0 mm
17:31 53.6 °F /  12.0 °C 24.4 °F /  -4.2 °C 30.1 in /  1018.8 hPa WSW 2.4 mph /  3.9 km/h 2.4 mph /  3.9 km/h 32 % 0 in /  0.0 mm
17:36 53.2 °F /  11.8 °C 24.1 °F /  -4.4 °C 30.1 in /  1018.8 hPa NW 2.3 mph /  3.7 km/h 2.3 mph /  3.7 km/h 32 % 0 in /  0.0 mm
17:41 52.9 °F /  11.6 °C 23.7 °F /  -4.6 °C 30.1 in /  1018.8 hPa WNW 2.3 mph /  3.7 km/h 2.3 mph /  3.7 km/h 32 % 0 in /  0.0 mm
17:46 52.7 °F /  11.5 °C 23.5 °F /  -4.7 °C 30.1 in /  1018.8 hPa WNW 2.3 mph /  3.7 km/h 2.3 mph /  3.7 km/h 32 % 0 in /  0.0 mm
17:51 52.3 °F /  11.3 °C 23.4 °F /  -4.8 °C 30.1 in /  1018.8 hPa WNW 1.2 mph /  1.9 km/h 1.2 mph /  1.9 km/h 32 % 0 in /  0.0 mm
17:56 52 °F /  11.1 °C 23 °F /  -5.0 °C 30.1 in /  1018.8 hPa NNW 2.4 mph /  3.9 km/h 2.4 mph /  3.9 km/h 32 % 0 in /  0.0 mm
18:01 51.8 °F /  11.0 °C 22.8 °F /  -5.1 °C 30.1 in /  1018.8 hPa West 2.3 mph /  3.7 km/h 2.3 mph /  3.7 km/h 32 % 0 in /  0.0 mm
18:06 51.3 °F /  10.7 °C 22.5 °F /  -5.3 °C 30.1 in /  1018.8 hPa NE 2.3 mph /  3.7 km/h 2.3 mph /  3.7 km/h 32 % 0 in /  0.0 mm
18:11 50.9 °F /  10.5 °C 22.1 °F /  -5.5 °C 30.1 in /  1018.8 hPa NE 2.3 mph /  3.7 km/h 2.3 mph /  3.7 km/h 32 % 0 in /  0.0 mm
18:16 50.5 °F /  10.3 °C 21.7 °F /  -5.7 °C 30.1 in /  1018.8 hPa NNE 2.3 mph /  3.7 km/h 2.3 mph /  3.7 km/h 32 % 0 in /  0.0 mm
18:21 50.2 °F /  10.1 °C 21.4 °F /  -5.9 °C 30.1 in /  1018.8 hPa NNW 2.3 mph /  3.7 km/h 2.3 mph /  3.7 km/h 32 % 0 in /  0.0 mm
18:26 49.8 °F /  9.9 °C 21 °F /  -6.1 °C 30.1 in /  1018.8 hPa West 1.2 mph /  1.9 km/h 1.2 mph /  1.9 km/h 32 % 0 in /  0.0 mm
18:31 49.6 °F /  9.8 °C 21.7 °F /  -5.7 °C 30.1 in /  1018.8 hPa WSW 2.3 mph /  3.7 km/h 2.3 mph /  3.7 km/h 33 % 0 in /  0.0 mm
18:36 49.5 °F /  9.7 °C 21.6 °F /  -5.8 °C 30.1 in /  1019.9 hPa SSW 2.4 mph /  3.9 km/h   33 % 0 in /  0.0 mm
18:41 49.6 °F /  9.8 °C 21.7 °F /  -5.7 °C 30.1 in /  1019.9 hPa WNW 1.2 mph /  1.9 km/h   33 % 0 in /  0.0 mm
18:46 49.5 °F /  9.7 °C 21.6 °F /  -5.8 °C 30.1 in /  1019.9 hPa WNW 1.2 mph /  1.9 km/h   33 % 0 in /  0.0 mm
18:51 49.1 °F /  9.5 °C 21.2 °F /  -6.0 °C 30.1 in /  1019.9 hPa WSW 2.3 mph /  3.7 km/h 2.3 mph /  3.7 km/h 33 % 0 in /  0.0 mm
18:56 49.1 °F /  9.5 °C 21.2 °F /  -6.0 °C 30.1 in /  1019.9 hPa SSW 1.2 mph /  1.9 km/h   33 % 0 in /  0.0 mm
19:01 49.3 °F /  9.6 °C 21.4 °F /  -5.9 °C 30.1 in /  1019.9 hPa SW 3.5 mph /  5.6 km/h 3.5 mph /  5.6 km/h 33 % 0 in /  0.0 mm
19:05 39 °F /  3.9 °C 20.5 °F /  -6.4 °C 30.1 in /  1019.9 hPa Calm     47 % 0 in /  0.0 mm
19:06 49.1 °F /  9.5 °C 21.2 °F /  -6.0 °C 30.1 in /  1019.9 hPa SW 2.6 mph /  4.2 km/h 2.6 mph /  4.2 km/h 33 % 0 in /  0.0 mm
19:11 48.9 °F /  9.4 °C 21 °F /  -6.1 °C 30.1 in /  1019.9 hPa West 2.4 mph /  3.9 km/h 2.4 mph /  3.9 km/h 33 % 0 in /  0.0 mm
19:15 38.8 °F /  3.8 °C 20.3 °F /  -6.5 °C 30.1 in /  1019.9 hPa Calm     47 % 0 in /  0.0 mm
19:16 48.6 °F /  9.2 °C 20.7 °F /  -6.3 °C 30.1 in /  1019.9 hPa West 2 mph /  3.2 km/h 2 mph /  3.2 km/h 33 % 0 in /  0.0 mm
19:17 48.4 °F /  9.1 °C 20.7 °F /  -6.3 °C 30.1 in /  1019.9 hPa West 2.3 mph /  3.7 km/h 2.3 mph /  3.7 km/h 33 % 0 in /  0.0 mm
19:22 48.2 °F /  9.0 °C 20.5 °F /  -6.4 °C 30.1 in /  1019.9 hPa WNW 1.6 mph /  2.6 km/h 1.6 mph /  2.6 km/h 33 % 0 in /  0.0 mm
19:25 38.5 °F /  3.6 °C 20.5 °F /  -6.4 °C 30.1 in /  1019.9 hPa WNW 1 mph /  1.6 km/h 1 mph /  1.6 km/h 48 % 0 in /  0.0 mm
19:27 48.4 °F /  9.1 °C 20.7 °F /  -6.3 °C 30.1 in /  1019.9 hPa WNW 1.4 mph /  2.3 km/h 1.4 mph /  2.3 km/h 33 % 0 in /  0.0 mm
19:32 48.2 °F /  9.0 °C 20.5 °F /  -6.4 °C 30.1 in /  1019.9 hPa WNW 1.2 mph /  1.9 km/h 1.2 mph /  1.9 km/h 33 % 0 in /  0.0 mm
19:35 38.1 °F /  3.4 °C 20.1 °F /  -6.6 °C 30.1 in /  1019.9 hPa Calm   1 mph /  1.6 km/h 48 % 0 in /  0.0 mm
19:37 48.2 °F /  9.0 °C 20.5 °F /  -6.4 °C 30.1 in /  1019.9 hPa WNW 1.2 mph /  1.9 km/h   33 % 0 in /  0.0 mm
19:42 48.2 °F /  9.0 °C 20.5 °F /  -6.4 °C 30.1 in /  1019.9 hPa Calm     33 % 0 in /  0.0 mm
19:45 38.5 °F /  3.6 °C 20.5 °F /  -6.4 °C 30.1 in /  1019.9 hPa West 1 mph /  1.6 km/h 2 mph /  3.2 km/h 48 % 0 in /  0.0 mm
19:47 47.8 °F /  8.8 °C 20.1 °F /  -6.6 °C 30.1 in /  1019.9 hPa NNW 1.4 mph /  2.3 km/h 1.4 mph /  2.3 km/h 33 % 0 in /  0.0 mm
19:52 47.7 °F /  8.7 °C 19.9 °F /  -6.7 °C 30.1 in /  1019.9 hPa WNW 1.2 mph /  1.9 km/h 1.2 mph /  1.9 km/h 33 % 0 in /  0.0 mm
19:55 38.5 °F /  3.6 °C 20.5 °F /  -6.4 °C 30.1 in /  1019.9 hPa Calm   1 mph /  1.6 km/h 48 % 0 in /  0.0 mm
19:57 47.8 °F /  8.8 °C 20.1 °F /  -6.6 °C 30.1 in /  1019.9 hPa Calm     33 % 0 in /  0.0 mm
20:02 48 °F /  8.9 °C 20.1 °F /  -6.6 °C 30.1 in /  1019.9 hPa WNW 1.2 mph /  1.9 km/h   33 % 0 in /  0.0 mm
20:05 38.5 °F /  3.6 °C 21 °F /  -6.1 °C 30.1 in /  1019.9 hPa NE 1 mph /  1.6 km/h 2 mph /  3.2 km/h 49 % 0 in /  0.0 mm
20:07 48 °F /  8.9 °C 20.1 °F /  -6.6 °C 30.1 in /  1019.9 hPa Calm     33 % 0 in /  0.0 mm
20:12 47.8 °F /  8.8 °C 20.8 °F /  -6.2 °C 30.1 in /  1019.9 hPa WNW 1.2 mph /  1.9 km/h 1.2 mph /  1.9 km/h 34 % 0 in /  0.0 mm
20:15 38.7 °F /  3.7 °C 21 °F /  -6.1 °C 30.1 in /  1019.9 hPa NE 1 mph /  1.6 km/h 2 mph /  3.2 km/h 49 % 0 in /  0.0 mm
20:17 47.3 °F /  8.5 °C 20.3 °F /  -6.5 °C 30.1 in /  1019.9 hPa Calm     34 % 0 in /  0.0 mm
20:22 46.8 °F /  8.2 °C 19.8 °F /  -6.8 °C 30.1 in /  1019.9 hPa West 2.3 mph /  3.7 km/h 2.3 mph /  3.7 km/h 34 % 0 in /  0.0 mm
20:25 38.3 °F /  3.5 °C 20.3 °F /  -6.5 °C 30.1 in /  1019.9 hPa Calm   1 mph /  1.6 km/h 48 % 0 in /  0.0 mm
20:27 46.8 °F /  8.2 °C 19.8 °F /  -6.8 °C 30.1 in /  1019.9 hPa West 2 mph /  3.2 km/h   34 % 0 in /  0.0 mm
20:32 46.4 °F /  8.0 °C 19.6 °F /  -6.9 °C 30.1 in /  1019.9 hPa Calm     34 % 0 in /  0.0 mm
20:35 38.1 °F /  3.4 °C 20.1 °F /  -6.6 °C 30.1 in /  1019.9 hPa Calm   1 mph /  1.6 km/h 48 % 0 in /  0.0 mm
20:37 46 °F /  7.8 °C 19.2 °F /  -7.1 °C 30.1 in /  1019.9 hPa Calm     34 % 0 in /  0.0 mm
20:42 45.7 °F /  7.6 °C 18.9 °F /  -7.3 °C 30.1 in /  1019.9 hPa Calm     34 % 0 in /  0.0 mm
20:45 38.1 °F /  3.4 °C 20.1 °F /  -6.6 °C 30.1 in /  1019.9 hPa WNW 1 mph /  1.6 km/h 2 mph /  3.2 km/h 48 % 0 in /  0.0 mm
20:47 45.7 °F /  7.6 °C 18.9 °F /  -7.3 °C 30.1 in /  1019.9 hPa WSW 2.3 mph /  3.7 km/h 2.3 mph /  3.7 km/h 34 % 0 in /  0.0 mm
20:52 45.7 °F /  7.6 °C 18.9 °F /  -7.3 °C 30.1 in /  1019.9 hPa Calm     34 % 0 in /  0.0 mm
20:55 37.8 °F /  3.2 °C 19.8 °F /  -6.8 °C 30.1 in /  1019.9 hPa WNW 1 mph /  1.6 km/h 2 mph /  3.2 km/h 48 % 0 in /  0.0 mm
20:57 45.5 °F /  7.5 °C 18.7 °F /  -7.4 °C 30.1 in /  1019.9 hPa NW 1.2 mph /  1.9 km/h 1.2 mph /  1.9 km/h 34 % 0 in /  0.0 mm
21:02 45.1 °F /  7.3 °C 19 °F /  -7.2 °C 30.1 in /  1019.9 hPa North 2.3 mph /  3.7 km/h 2.3 mph /  3.7 km/h 35 % 0 in /  0.0 mm
21:05 37.6 °F /  3.1 °C 19.6 °F /  -6.9 °C 30.1 in /  1019.9 hPa WNW 1 mph /  1.6 km/h 2 mph /  3.2 km/h 48 % 0 in /  0.0 mm
21:07 45 °F /  7.2 °C 18.9 °F /  -7.3 °C 30.1 in /  1019.9 hPa NNW 1.4 mph /  2.3 km/h 1.4 mph /  2.3 km/h 35 % 0 in /  0.0 mm
21:12 44.8 °F /  7.1 °C 18.9 °F /  -7.3 °C 30.1 in /  1019.9 hPa North 2.3 mph /  3.7 km/h 2.3 mph /  3.7 km/h 35 % 0 in /  0.0 mm
21:15 37 °F /  2.8 °C 19 °F /  -7.2 °C 30.1 in /  1019.9 hPa West 1 mph /  1.6 km/h 2 mph /  3.2 km/h 48 % 0 in /  0.0 mm
21:17 44.6 °F /  7.0 °C 18.7 °F /  -7.4 °C 30.1 in /  1019.9 hPa ENE 2.3 mph /  3.7 km/h 2.3 mph /  3.7 km/h 35 % 0 in /  0.0 mm
21:22 44.6 °F /  7.0 °C 18.7 °F /  -7.4 °C 30.1 in /  1019.9 hPa Calm     35 % 0 in /  0.0 mm
21:25 37 °F /  2.8 °C 19.6 °F /  -6.9 °C 30.1 in /  1019.9 hPa West 1 mph /  1.6 km/h 3 mph /  4.8 km/h 49 % 0 in /  0.0 mm
21:27 44.4 °F /  6.9 °C 19 °F /  -7.2 °C 30.1 in /  1019.9 hPa ENE 1.4 mph /  2.3 km/h   36 % 0 in /  0.0 mm
21:32 44.4 °F /  6.9 °C 19 °F /  -7.2 °C 30.1 in /  1019.9 hPa ENE 1.2 mph /  1.9 km/h 1.2 mph /  1.9 km/h 36 % 0 in /  0.0 mm
21:35 37.2 °F /  2.9 °C 19.8 °F /  -6.8 °C 30.1 in /  1019.9 hPa West 1 mph /  1.6 km/h 2 mph /  3.2 km/h 49 % 0 in /  0.0 mm
21:37 44.1 °F /  6.7 °C 18.9 °F /  -7.3 °C 30.1 in /  1019.9 hPa East 2.3 mph /  3.7 km/h 2.3 mph /  3.7 km/h 36 % 0 in /  0.0 mm
21:42 44.1 °F /  6.7 °C 19.4 °F /  -7.0 °C 30.1 in /  1019.9 hPa East 1.2 mph /  1.9 km/h   37 % 0 in /  0.0 mm
21:45 37.8 °F /  3.2 °C 20.3 °F /  -6.5 °C 30.1 in /  1019.9 hPa West 1 mph /  1.6 km/h 3 mph /  4.8 km/h 49 % 0 in /  0.0 mm
21:47 43.9 °F /  6.6 °C 19.2 °F /  -7.1 °C 30.1 in /  1019.9 hPa NE 1.4 mph /  2.3 km/h 1.4 mph /  2.3 km/h 37 % 0 in /  0.0 mm
21:52 43.5 °F /  6.4 °C 18.9 °F /  -7.3 °C 30.1 in /  1019.9 hPa NE 2.3 mph /  3.7 km/h 2.3 mph /  3.7 km/h 37 % 0 in /  0.0 mm
21:55 37.8 °F /  3.2 °C 20.3 °F /  -6.5 °C 30.1 in /  1019.9 hPa Calm   3 mph /  4.8 km/h 49 % 0 in /  0.0 mm
21:57 43.2 °F /  6.2 °C 18.7 °F /  -7.4 °C 30.1 in /  1019.9 hPa Calm     37 % 0 in /  0.0 mm
22:02 43 °F /  6.1 °C 18.5 °F /  -7.5 °C 30.1 in /  1019.9 hPa Calm     37 % 0 in /  0.0 mm
22:05 37.6 °F /  3.1 °C 20.7 °F /  -6.3 °C 30.1 in /  1019.9 hPa WNW 1 mph /  1.6 km/h 2 mph /  3.2 km/h 50 % 0 in /  0.0 mm
22:07 42.8 °F /  6.0 °C 18.9 °F /  -7.3 °C 30.1 in /  1019.9 hPa NNE 1.2 mph /  1.9 km/h 1.2 mph /  1.9 km/h 38 % 0 in /  0.0 mm
22:12 42.8 °F /  6.0 °C 18.9 °F /  -7.3 °C 30.1 in /  1019.9 hPa Calm     38 % 0 in /  0.0 mm
22:15 37.6 °F /  3.1 °C 20.1 °F /  -6.6 °C 30.1 in /  1019.9 hPa West 1 mph /  1.6 km/h 2 mph /  3.2 km/h 49 % 0 in /  0.0 mm
22:17 42.8 °F /  6.0 °C 18.9 °F /  -7.3 °C 30.1 in /  1019.9 hPa Calm     38 % 0 in /  0.0 mm
22:22 42.6 °F /  5.9 °C 19.4 °F /  -7.0 °C 30.1 in /  1019.9 hPa ENE 1.6 mph /  2.6 km/h   39 % 0 in /  0.0 mm
22:25 37.9 °F /  3.3 °C 20.5 °F /  -6.4 °C 30.1 in /  1018.8 hPa NW 1 mph /  1.6 km/h 2 mph /  3.2 km/h 49 % 0 in /  0.0 mm
22:27 42.4 °F /  5.8 °C 19.2 °F /  -7.1 °C 30.1 in /  1019.9 hPa NE 1.4 mph /  2.3 km/h 1.4 mph /  2.3 km/h 39 % 0 in /  0.0 mm
22:32 42.3 °F /  5.7 °C 19.6 °F /  -6.9 °C 30.1 in /  1019.9 hPa NE 1.2 mph /  1.9 km/h   40 % 0 in /  0.0 mm
22:35 37.9 °F /  3.3 °C 20.5 °F /  -6.4 °C 30.1 in /  1018.8 hPa NNE 1 mph /  1.6 km/h 3 mph /  4.8 km/h 49 % 0 in /  0.0 mm
22:37 41.9 °F /  5.5 °C 19.2 °F /  -7.1 °C 30.1 in /  1019.9 hPa NE 1.2 mph /  1.9 km/h   40 % 0 in /  0.0 mm
22:42 41.7 °F /  5.4 °C 19 °F /  -7.2 °C 30.1 in /  1019.9 hPa Calm     40 % 0 in /  0.0 mm
22:45 37.6 °F /  3.1 °C 20.1 °F /  -6.6 °C 30.1 in /  1019.9 hPa Calm     49 % 0 in /  0.0 mm
22:47 41.5 °F /  5.3 °C 19.6 °F /  -6.9 °C 30.1 in /  1019.9 hPa Calm     41 % 0 in /  0.0 mm
22:52 41.2 °F /  5.1 °C 19.2 °F /  -7.1 °C 30.2 in /  1020.9 hPa Calm     41 % 0 in /  0.0 mm
22:55 37.4 °F /  3.0 °C 19.9 °F /  -6.7 °C 30.1 in /  1018.8 hPa NNW 1 mph /  1.6 km/h 2 mph /  3.2 km/h 49 % 0 in /  0.0 mm
22:57 41 °F /  5.0 °C 19 °F /  -7.2 °C 30.2 in /  1020.9 hPa Calm     41 % 0 in /  0.0 mm
23:02 40.6 °F /  4.8 °C 19.2 °F /  -7.1 °C 30.2 in /  1020.9 hPa Calm     42 % 0 in /  0.0 mm
23:05 37.4 °F /  3.0 °C 20.5 °F /  -6.4 °C 30.1 in /  1018.8 hPa Calm   2 mph /  3.2 km/h 50 % 0 in /  0.0 mm
23:07 40.5 °F /  4.7 °C 19 °F /  -7.2 °C 30.1 in /  1019.9 hPa Calm     42 % 0 in /  0.0 mm
23:12 40.1 °F /  4.5 °C 18.9 °F /  -7.3 °C 30.1 in /  1019.9 hPa Calm     42 % 0 in /  0.0 mm
23:15 37 °F /  2.8 °C 20.1 °F /  -6.6 °C 30.1 in /  1019.9 hPa NNW 1 mph /  1.6 km/h 2 mph /  3.2 km/h 50 % 0 in /  0.0 mm
23:17 40.1 °F /  4.5 °C 18.9 °F /  -7.3 °C 30.1 in /  1019.9 hPa WSW 1.2 mph /  1.9 km/h 1.4 mph /  2.3 km/h 42 % 0 in /  0.0 mm
23:22 39.9 °F /  4.4 °C 18.7 °F /  -7.4 °C 30.1 in /  1019.9 hPa WSW 2.4 mph /  3.9 km/h 2.4 mph /  3.9 km/h 42 % 0 in /  0.0 mm
23:25 36.7 °F /  2.6 °C 19.8 °F /  -6.8 °C 30.1 in /  1019.9 hPa Calm   2 mph /  3.2 km/h 50 % 0 in /  0.0 mm
23:27 39.9 °F /  4.4 °C 18.7 °F /  -7.4 °C 30.1 in /  1019.9 hPa SW 2.3 mph /  3.7 km/h 2.3 mph /  3.7 km/h 42 % 0 in /  0.0 mm
23:32 39.7 °F /  4.3 °C 18.5 °F /  -7.5 °C 30.1 in /  1019.9 hPa SW 2.4 mph /  3.9 km/h 2.4 mph /  3.9 km/h 42 % 0 in /  0.0 mm
23:37 39.7 °F /  4.3 °C 18.5 °F /  -7.5 °C 30.1 in /  1019.9 hPa WSW 2.3 mph /  3.7 km/h 2.4 mph /  3.9 km/h 42 % 0 in /  0.0 mm
23:42 39.6 °F /  4.2 °C 18.9 °F /  -7.3 °C 30.1 in /  1019.9 hPa WSW 1.2 mph /  1.9 km/h   43 % 0 in /  0.0 mm
23:45 36 °F /  2.2 °C 19 °F /  -7.2 °C 30.1 in /  1018.8 hPa West 1 mph /  1.6 km/h 1 mph /  1.6 km/h 50 % 0 in /  0.0 mm
23:47 39.6 °F /  4.2 °C 18.9 °F /  -7.3 °C 30.1 in /  1019.9 hPa WSW 1.6 mph /  2.6 km/h   43 % 0 in /  0.0 mm
23:52 39.7 °F /  4.3 °C 19 °F /  -7.2 °C 30.1 in /  1019.9 hPa SW 2.3 mph /  3.7 km/h 2.3 mph /  3.7 km/h 43 % 0 in /  0.0 mm
23:55 36.1 °F /  2.3 °C 19.2 °F /  -7.1 °C 30.1 in /  1019.9 hPa West 1 mph /  1.6 km/h 2 mph /  3.2 km/h 50 % 0 in /  0.0 mm
23:57 39.7 °F /  4.3 °C 19.6 °F /  -6.9 °C 30.1 in /  1019.9 hPa Calm     44 % 0 in /  0.0 mm
Meteo Sesrovires
Elogis d' Weather Underground - 3.75 mb

Guio original per  Jim McMurry - jmcmurry@mwt.net Adaptat per a la plantilla per  Wim van der Kuil - Leuven-Template.eu

Trobareu la nostra informacio del temps tambe a:

Weather Underground

AWEKAS